createdAt,value
2018-06-28T00:00:20.417Z,18.80
2018-06-28T00:02:48.884Z,18.80
2018-06-28T00:05:17.317Z,18.80
2018-06-28T00:07:45.840Z,18.80
2018-06-28T00:10:14.275Z,18.80
2018-06-28T00:12:42.733Z,18.70
2018-06-28T00:15:11.190Z,18.70
2018-06-28T00:17:40.221Z,18.60
2018-06-28T00:20:08.708Z,18.60
2018-06-28T00:22:37.158Z,18.60
2018-06-28T00:25:06.555Z,18.60
2018-06-28T00:27:34.984Z,18.50
2018-06-28T00:30:04.690Z,18.60
2018-06-28T00:32:33.187Z,18.50
2018-06-28T00:35:01.621Z,18.50
2018-06-28T00:37:30.101Z,18.40
2018-06-28T00:39:58.549Z,18.40
2018-06-28T00:42:26.990Z,18.30
2018-06-28T00:44:55.415Z,18.20
2018-06-28T00:47:23.856Z,18.20
2018-06-28T00:49:52.266Z,18.10
2018-06-28T00:52:20.718Z,18.10
2018-06-28T00:54:49.122Z,18.00
2018-06-28T00:57:20.548Z,18.00
2018-06-28T00:59:48.953Z,17.90
2018-06-28T01:02:17.393Z,17.80
2018-06-28T01:04:45.802Z,17.80
2018-06-28T01:07:14.261Z,17.80
2018-06-28T01:09:42.842Z,17.70
2018-06-28T01:12:11.321Z,17.70
2018-06-28T01:14:39.741Z,17.70
2018-06-28T01:17:08.964Z,17.70
2018-06-28T01:19:37.465Z,17.70
2018-06-28T01:22:06.009Z,17.60
2018-06-28T01:24:34.419Z,17.60
2018-06-28T01:27:02.869Z,17.50
2018-06-28T01:29:31.889Z,17.50
2018-06-28T01:32:00.555Z,17.40
2018-06-28T01:34:28.978Z,17.30
2018-06-28T01:36:57.390Z,17.20
2018-06-28T01:39:25.837Z,17.10
2018-06-28T01:42:05.356Z,17.00
2018-06-28T01:44:33.977Z,17.00
2018-06-28T01:47:02.503Z,16.90
2018-06-28T01:49:31.349Z,16.70
2018-06-28T01:51:59.798Z,16.70
2018-06-28T01:54:28.226Z,16.60
2018-06-28T01:56:56.978Z,16.60
2018-06-28T01:59:25.437Z,16.50
2018-06-28T02:01:53.951Z,16.50
2018-06-28T02:04:22.712Z,16.40
2018-06-28T02:06:51.284Z,16.40
2018-06-28T02:09:19.805Z,16.30
2018-06-28T02:11:48.390Z,16.30
2018-06-28T02:14:16.867Z,16.20
2018-06-28T02:16:45.390Z,16.20
2018-06-28T02:19:13.945Z,16.20
2018-06-28T02:21:42.495Z,16.20
2018-06-28T02:24:11.012Z,16.20
2018-06-28T02:26:39.583Z,16.20
2018-06-28T02:29:08.051Z,16.20
2018-06-28T02:31:36.517Z,16.20
2018-06-28T02:34:05.400Z,16.20
2018-06-28T02:36:34.282Z,16.20
2018-06-28T02:39:04.687Z,16.20
2018-06-28T02:41:34.145Z,16.10
2018-06-28T02:44:03.717Z,16.10
2018-06-28T02:46:32.465Z,16.10
2018-06-28T02:49:00.941Z,16.00
2018-06-28T02:51:29.472Z,16.00
2018-06-28T02:53:58.010Z,15.90
2018-06-28T02:56:26.486Z,15.90
2018-06-28T02:58:55.289Z,15.80
2018-06-28T03:01:23.709Z,15.80
2018-06-28T03:03:52.092Z,15.70
2018-06-28T03:06:20.549Z,15.70
2018-06-28T03:08:48.957Z,15.60
2018-06-28T03:11:17.807Z,15.60
2018-06-28T03:13:46.299Z,15.50
2018-06-28T03:16:14.844Z,15.50
2018-06-28T03:18:43.966Z,15.40
2018-06-28T03:21:12.492Z,15.40
2018-06-28T03:23:41.153Z,15.40
2018-06-28T03:26:09.780Z,15.30
2018-06-28T03:28:38.477Z,15.30
2018-06-28T03:31:07.306Z,15.40
2018-06-28T03:33:35.777Z,15.40
2018-06-28T03:36:04.379Z,15.40
2018-06-28T03:38:33.502Z,15.50
2018-06-28T03:41:02.423Z,15.60
2018-06-28T03:43:31.336Z,15.60
2018-06-28T03:46:00.653Z,15.70
2018-06-28T03:48:29.219Z,15.70
2018-06-28T03:50:58.068Z,15.80
2018-06-28T03:53:26.662Z,15.90
2018-06-28T03:55:55.179Z,15.90
2018-06-28T03:58:24.077Z,16.00
2018-06-28T04:00:52.584Z,16.10
2018-06-28T04:03:21.236Z,16.60
2018-06-28T04:05:49.787Z,17.30
2018-06-28T04:08:18.425Z,18.10
2018-06-28T04:10:47.130Z,19.00
2018-06-28T04:13:15.678Z,19.80
2018-06-28T04:15:44.274Z,20.70
2018-06-28T04:18:12.819Z,21.40
2018-06-28T04:20:41.526Z,22.00
2018-06-28T04:23:10.091Z,22.60
2018-06-28T04:25:38.581Z,23.20
2018-06-28T04:28:07.382Z,23.70
2018-06-28T04:30:36.085Z,24.30
2018-06-28T04:33:04.632Z,24.80
2018-06-28T04:35:33.396Z,25.30
2018-06-28T04:38:02.556Z,25.80
2018-06-28T04:40:31.102Z,26.20
2018-06-28T04:43:00.496Z,26.70
2018-06-28T04:45:29.107Z,27.10
2018-06-28T04:47:57.885Z,27.50
2018-06-28T04:50:26.949Z,27.80
2018-06-28T04:52:55.535Z,28.10
2018-06-28T04:55:24.455Z,28.50
2018-06-28T04:57:53.481Z,28.90
2018-06-28T05:00:22.124Z,29.30
2018-06-28T05:02:50.640Z,29.50
2018-06-28T05:05:19.392Z,29.90
2018-06-28T05:07:48.485Z,30.20
2018-06-28T05:10:17.421Z,30.60
2018-06-28T05:12:46.455Z,30.80
2018-06-28T05:15:15.083Z,31.10
2018-06-28T05:17:43.962Z,31.10
2018-06-28T05:20:12.714Z,31.20
2018-06-28T05:22:41.949Z,31.20
2018-06-28T05:25:10.858Z,31.30
2018-06-28T05:27:39.734Z,31.60
2018-06-28T05:30:08.602Z,32.00
2018-06-28T05:32:37.242Z,32.40
2018-06-28T05:35:06.893Z,32.70
2018-06-28T05:37:35.756Z,33.00
2018-06-28T05:40:04.438Z,33.30
2018-06-28T05:42:33.144Z,33.60
2018-06-28T05:45:01.682Z,33.90
2018-06-28T05:47:30.264Z,34.20
2018-06-28T05:49:58.874Z,34.30
2018-06-28T05:52:27.489Z,34.00
2018-06-28T05:54:56.051Z,34.00
2018-06-28T05:57:24.501Z,34.00
2018-06-28T05:59:53.236Z,33.70
2018-06-28T06:02:21.990Z,33.50
2018-06-28T06:04:50.529Z,33.70
2018-06-28T06:07:19.018Z,33.80
2018-06-28T06:09:47.697Z,34.10
2018-06-28T06:12:16.436Z,34.60
2018-06-28T06:14:45.090Z,35.20
2018-06-28T06:17:13.673Z,35.50
2018-06-28T06:19:42.135Z,35.50
2018-06-28T06:22:10.695Z,35.50
2018-06-28T06:24:39.162Z,35.60
2018-06-28T06:27:07.645Z,35.70
2018-06-28T06:29:36.071Z,35.80
2018-06-28T06:32:04.674Z,35.70
2018-06-28T06:34:33.103Z,35.70
2018-06-28T06:37:01.552Z,35.40
2018-06-28T06:39:30.963Z,35.00
2018-06-28T06:41:59.405Z,35.00
2018-06-28T06:44:28.274Z,35.10
2018-06-28T06:46:56.697Z,35.30
2018-06-28T06:49:25.213Z,35.40
2018-06-28T06:51:54.072Z,35.70
2018-06-28T06:54:22.504Z,35.80
2018-06-28T06:56:50.917Z,36.20
2018-06-28T06:59:20.325Z,36.50
2018-06-28T07:01:48.805Z,36.70
2018-06-28T07:04:17.221Z,36.60
2018-06-28T07:06:45.766Z,36.10
2018-06-28T07:09:14.263Z,35.60
2018-06-28T07:11:42.741Z,35.50
2018-06-28T07:14:11.838Z,35.60
2018-06-28T07:16:40.483Z,35.60
2018-06-28T07:19:09.290Z,35.20
2018-06-28T07:21:37.781Z,35.30
2018-06-28T07:24:06.373Z,35.30
2018-06-28T07:26:34.828Z,35.20
2018-06-28T07:29:03.393Z,35.30
2018-06-28T07:31:32.258Z,35.20
2018-06-28T07:34:00.730Z,35.40
2018-06-28T07:36:29.416Z,35.30
2018-06-28T07:38:58.194Z,35.30
2018-06-28T07:41:26.775Z,35.50
2018-06-28T07:43:55.728Z,35.70
2018-06-28T07:46:24.868Z,35.70
2018-06-28T07:48:54.484Z,35.60
2018-06-28T07:51:23.863Z,35.60
2018-06-28T07:53:52.932Z,35.50
2018-06-28T07:56:21.551Z,35.00
2018-06-28T07:58:50.419Z,34.70
2018-06-28T08:01:18.988Z,34.60
2018-06-28T08:03:47.860Z,35.00
2018-06-28T08:06:16.756Z,35.60
2018-06-28T08:08:45.428Z,35.90
2018-06-28T08:11:15.042Z,35.20
2018-06-28T08:13:43.739Z,34.80
2018-06-28T08:16:12.386Z,34.70
2018-06-28T08:18:40.878Z,34.60
2018-06-28T08:21:09.665Z,34.90
2018-06-28T08:23:38.200Z,34.90
2018-06-28T08:26:06.848Z,35.60
2018-06-28T08:28:35.792Z,36.40
2018-06-28T08:31:04.441Z,36.80
2018-06-28T08:33:33.038Z,37.10
2018-06-28T08:36:01.775Z,36.70
2018-06-28T08:38:30.567Z,35.60
2018-06-28T08:40:59.271Z,35.30
2018-06-28T08:43:27.899Z,34.50
2018-06-28T08:45:56.871Z,33.90
2018-06-28T08:48:25.575Z,33.60
2018-06-28T08:50:55.101Z,33.10
2018-06-28T08:53:24.160Z,33.00
2018-06-28T08:55:53.228Z,33.50
2018-06-28T08:58:22.590Z,33.70
2018-06-28T09:00:51.176Z,34.10
2018-06-28T09:03:21.212Z,34.90
2018-06-28T09:05:49.901Z,34.80
2018-06-28T09:08:18.710Z,34.50
2018-06-28T09:10:47.371Z,34.10
2018-06-28T09:13:15.948Z,33.50
2018-06-28T09:15:44.743Z,33.10
2018-06-28T09:18:13.394Z,33.30
2018-06-28T09:20:42.987Z,33.80
2018-06-28T09:23:11.617Z,34.40
2018-06-28T09:25:41.314Z,34.70
2018-06-28T09:28:10.492Z,34.40
2018-06-28T09:30:39.284Z,33.80
2018-06-28T09:33:07.993Z,33.70
2018-06-28T09:35:37.218Z,34.30
2018-06-28T09:38:06.246Z,34.40
2018-06-28T09:40:35.045Z,34.40
2018-06-28T09:43:03.923Z,34.10
2018-06-28T09:45:32.594Z,33.80
2018-06-28T09:48:01.375Z,33.50
2018-06-28T09:50:29.896Z,34.10
2018-06-28T09:52:59.044Z,34.70
2018-06-28T09:55:27.875Z,34.00
2018-06-28T09:57:56.851Z,33.70
2018-06-28T10:00:31.693Z,34.00
2018-06-28T10:03:01.140Z,33.90
2018-06-28T10:05:29.928Z,33.90
2018-06-28T10:07:58.611Z,33.70
2018-06-28T10:10:27.358Z,33.70
2018-06-28T10:12:55.940Z,32.90
2018-06-28T10:15:25.350Z,32.60
2018-06-28T10:17:54.965Z,33.10
2018-06-28T10:20:23.571Z,33.80
2018-06-28T10:22:53.444Z,34.70
2018-06-28T10:25:21.973Z,35.40
2018-06-28T10:27:50.467Z,35.90
2018-06-28T10:30:19.253Z,35.70
2018-06-28T10:32:47.829Z,34.60
2018-06-28T10:35:16.456Z,33.90
2018-06-28T10:37:45.188Z,34.20
2018-06-28T10:40:13.756Z,34.70
2018-06-28T10:42:42.274Z,35.20
2018-06-28T10:45:10.752Z,35.00
2018-06-28T10:47:39.234Z,34.60
2018-06-28T10:50:07.811Z,34.00
2018-06-28T10:52:36.259Z,34.00
2018-06-28T10:55:04.989Z,34.00
2018-06-28T10:57:33.478Z,33.50
2018-06-28T11:00:02.089Z,32.80
2018-06-28T11:02:30.616Z,32.60
2018-06-28T11:04:59.112Z,33.00
2018-06-28T11:07:27.562Z,33.20
2018-06-28T11:09:56.041Z,32.90
2018-06-28T11:12:25.318Z,32.50
2018-06-28T11:14:54.764Z,32.10
2018-06-28T11:17:25.077Z,31.60
2018-06-28T11:19:55.016Z,31.00
2018-06-28T11:22:24.619Z,30.50
2018-06-28T11:24:53.781Z,29.80
2018-06-28T11:27:24.040Z,29.50
2018-06-28T11:29:53.557Z,29.50
2018-06-28T11:32:22.167Z,29.50
2018-06-28T11:34:50.706Z,29.30
2018-06-28T11:37:19.721Z,29.10
2018-06-28T11:39:48.862Z,29.10
2018-06-28T11:42:17.889Z,28.80
2018-06-28T11:44:46.988Z,28.40
2018-06-28T11:47:15.977Z,28.30
2018-06-28T11:49:45.002Z,28.40
2018-06-28T11:52:14.715Z,28.70
2018-06-28T11:54:43.676Z,28.70
2018-06-28T11:57:13.749Z,28.80
2018-06-28T11:59:42.599Z,28.80
2018-06-28T12:02:11.517Z,28.70
2018-06-28T12:04:40.532Z,28.70
2018-06-28T12:07:09.133Z,28.60
2018-06-28T12:09:37.793Z,28.60
2018-06-28T12:12:06.353Z,28.80
2018-06-28T12:14:34.873Z,28.90
2018-06-28T12:17:03.411Z,28.70
2018-06-28T12:19:31.910Z,28.50
2018-06-28T12:22:01.254Z,28.40
2018-06-28T12:24:29.787Z,28.10
2018-06-28T12:26:58.208Z,28.10
2018-06-28T12:29:26.802Z,28.10
2018-06-28T12:31:56.134Z,28.20
2018-06-28T12:34:25.305Z,28.20
2018-06-28T12:36:54.241Z,28.20
2018-06-28T12:39:23.543Z,28.00
2018-06-28T12:41:52.321Z,28.00
2018-06-28T12:44:20.727Z,27.90
2018-06-28T12:48:00.721Z,27.90
2018-06-28T12:50:29.342Z,28.00
2018-06-28T12:53:01.037Z,28.30
2018-06-28T12:56:15.914Z,28.40
2018-06-28T12:58:44.504Z,28.60
2018-06-28T13:01:13.084Z,28.80
2018-06-28T13:03:41.560Z,28.80
2018-06-28T13:06:10.026Z,28.70
2018-06-28T13:08:38.641Z,28.70
2018-06-28T13:11:08.016Z,28.70
2018-06-28T13:13:36.559Z,28.90
2018-06-28T13:16:04.980Z,28.90
2018-06-28T13:18:33.671Z,28.90
2018-06-28T13:21:02.161Z,28.90
2018-06-28T13:23:30.639Z,28.90
2018-06-28T13:25:59.282Z,29.00
2018-06-28T13:28:28.059Z,29.10
2018-06-28T13:30:57.096Z,29.00
2018-06-28T13:33:26.536Z,28.80
2018-06-28T13:35:55.421Z,28.70
2018-06-28T13:38:24.879Z,28.50
2018-06-28T13:40:53.469Z,28.60
2018-06-28T13:43:22.015Z,28.70
2018-06-28T13:45:50.646Z,28.70
2018-06-28T13:48:19.633Z,28.70
2018-06-28T13:50:48.468Z,28.70
2018-06-28T13:53:17.048Z,28.60
2018-06-28T13:55:45.638Z,28.70
2018-06-28T13:58:14.181Z,28.90
2018-06-28T14:00:42.702Z,28.90
2018-06-28T14:03:11.194Z,28.70
2018-06-28T14:05:40.123Z,28.40
2018-06-28T14:08:08.752Z,28.50
2018-06-28T14:10:37.404Z,28.50
2018-06-28T14:13:05.930Z,28.60
2018-06-28T14:15:34.464Z,28.70
2018-06-28T14:18:02.969Z,28.70
2018-06-28T14:20:31.616Z,28.80
2018-06-28T14:23:01.092Z,28.90
2018-06-28T14:25:29.589Z,29.00
2018-06-28T14:27:58.167Z,29.00
2018-06-28T14:30:26.636Z,29.00
2018-06-28T14:32:56.385Z,29.20
2018-06-28T14:35:25.077Z,29.20
2018-06-28T14:37:53.658Z,29.10
2018-06-28T14:40:22.282Z,29.10
2018-06-28T14:42:50.745Z,29.00
2018-06-28T14:45:19.214Z,29.20
2018-06-28T14:47:47.793Z,29.20
2018-06-28T14:50:16.289Z,29.00
2018-06-28T14:52:44.837Z,29.00
2018-06-28T14:55:13.509Z,29.20
2018-06-28T14:57:41.945Z,29.00
2018-06-28T15:00:10.407Z,28.80
2018-06-28T15:02:38.942Z,28.60
2018-06-28T15:05:07.709Z,28.70
2018-06-28T15:07:36.149Z,29.00
2018-06-28T15:10:04.805Z,29.00
2018-06-28T15:12:33.289Z,29.10
2018-06-28T15:15:01.716Z,29.20
2018-06-28T15:17:30.184Z,29.10
2018-06-28T15:19:58.811Z,29.20
2018-06-28T15:22:27.344Z,29.30
2018-06-28T15:24:55.875Z,29.30
2018-06-28T15:27:24.406Z,29.40
2018-06-28T15:29:53.102Z,29.40
2018-06-28T15:32:21.529Z,29.40
2018-06-28T15:34:49.995Z,29.40
2018-06-28T15:37:18.485Z,29.30
2018-06-28T15:39:46.976Z,29.20
2018-06-28T15:42:15.425Z,29.00
2018-06-28T15:44:44.484Z,29.00
2018-06-28T15:47:14.036Z,28.90
2018-06-28T15:49:42.609Z,28.80
2018-06-28T15:52:11.047Z,28.80
2018-06-28T15:54:39.618Z,28.50
2018-06-28T15:57:08.056Z,28.20
2018-06-28T15:59:36.444Z,28.20
2018-06-28T16:02:05.298Z,28.20
2018-06-28T16:04:34.242Z,28.30
2018-06-28T16:07:02.765Z,28.40
2018-06-28T16:09:31.216Z,28.60
2018-06-28T16:11:59.699Z,28.60
2018-06-28T16:14:28.197Z,28.60
2018-06-28T16:16:56.674Z,28.60
2018-06-28T16:19:25.129Z,28.60
2018-06-28T16:21:53.620Z,28.60
2018-06-28T16:24:22.759Z,28.40
2018-06-28T16:26:51.266Z,28.30
2018-06-28T16:29:19.753Z,28.20
2018-06-28T16:31:48.212Z,28.20
2018-06-28T16:34:16.726Z,28.20
2018-06-28T16:36:45.218Z,28.10
2018-06-28T16:39:13.801Z,28.00
2018-06-28T16:41:43.196Z,28.10
2018-06-28T16:44:11.653Z,28.10
2018-06-28T16:46:40.392Z,28.10
2018-06-28T16:49:08.708Z,28.10
2018-06-28T16:51:37.184Z,28.10
2018-06-28T16:54:08.595Z,28.10
2018-06-28T16:56:37.307Z,28.20
2018-06-28T16:59:05.757Z,28.20
2018-06-28T17:01:34.761Z,28.20
2018-06-28T17:04:03.280Z,28.20
2018-06-28T17:06:32.614Z,28.20
2018-06-28T17:09:01.096Z,28.00
2018-06-28T17:11:29.565Z,27.80
2018-06-28T17:13:58.371Z,27.70
2018-06-28T17:16:26.832Z,27.80
2018-06-28T17:18:55.304Z,27.70
2018-06-28T17:21:24.056Z,27.70
2018-06-28T17:23:52.677Z,27.60
2018-06-28T17:26:21.177Z,27.50
2018-06-28T17:28:50.194Z,27.50
2018-06-28T17:31:18.767Z,27.40
2018-06-28T17:33:47.267Z,27.40
2018-06-28T17:36:15.739Z,27.40
2018-06-28T17:38:44.233Z,27.40
2018-06-28T17:41:12.666Z,27.40
2018-06-28T17:43:41.209Z,27.40
2018-06-28T17:46:09.713Z,27.40
2018-06-28T17:48:38.170Z,27.30
2018-06-28T17:51:06.915Z,27.20
2018-06-28T17:53:35.333Z,27.10
2018-06-28T17:56:04.563Z,27.10
2018-06-28T17:58:33.093Z,27.10
2018-06-28T18:01:01.550Z,27.10
2018-06-28T18:03:30.077Z,27.10
2018-06-28T18:05:58.510Z,27.10
2018-06-28T18:08:26.952Z,27.00
2018-06-28T18:10:55.378Z,27.00
2018-06-28T18:13:23.818Z,26.90
2018-06-28T18:15:52.551Z,26.90
2018-06-28T18:18:21.061Z,26.90
2018-06-28T18:20:49.542Z,26.90
2018-06-28T18:23:18.013Z,26.90
2018-06-28T18:25:46.534Z,26.90
2018-06-28T18:28:15.003Z,26.80
2018-06-28T18:30:43.457Z,26.80
2018-06-28T18:33:11.953Z,26.80
2018-06-28T18:35:40.362Z,26.70
2018-06-28T18:38:08.890Z,26.70
2018-06-28T18:40:37.529Z,26.60
2018-06-28T18:43:06.109Z,26.50
2018-06-28T18:45:35.646Z,26.40
2018-06-28T18:48:05.737Z,26.40
2018-06-28T18:50:34.923Z,26.40
2018-06-28T18:53:04.260Z,26.30
2018-06-28T18:55:33.211Z,26.20
2018-06-28T18:58:02.911Z,26.10
2018-06-28T19:00:31.409Z,26.10
2018-06-28T19:03:00.112Z,26.00
2018-06-28T19:05:28.680Z,26.00
2018-06-28T19:07:57.348Z,25.90
2018-06-28T19:10:31.134Z,25.90
2018-06-28T19:12:59.675Z,25.80
2018-06-28T19:15:33.596Z,25.80
2018-06-28T19:18:02.174Z,25.70
2018-06-28T19:20:30.762Z,25.60
2018-06-28T19:23:05.182Z,25.50
2018-06-28T19:25:34.746Z,25.40
2018-06-28T19:28:03.274Z,25.30
2018-06-28T19:30:37.766Z,25.30
2018-06-28T19:33:06.220Z,25.20
2018-06-28T19:35:35.126Z,25.10
2018-06-28T19:38:04.822Z,25.00
2018-06-28T19:40:39.721Z,25.00
2018-06-28T19:43:09.363Z,24.90
2018-06-28T19:45:37.930Z,24.80
2018-06-28T19:48:06.414Z,24.70
2018-06-28T19:50:40.861Z,24.60
2018-06-28T19:53:11.291Z,24.60
2018-06-28T19:55:39.977Z,24.40
2018-06-28T19:58:08.509Z,24.40
2018-06-28T20:00:42.273Z,24.30
2018-06-28T20:03:16.185Z,24.20
2018-06-28T20:05:45.358Z,24.10
2018-06-28T20:08:14.206Z,24.00
2018-06-28T20:10:42.745Z,23.90
2018-06-28T20:13:16.473Z,23.90
2018-06-28T20:15:53.096Z,23.80
2018-06-28T20:18:26.869Z,23.70
2018-06-28T20:20:55.928Z,23.60
2018-06-28T20:23:24.601Z,23.50
2018-06-28T20:25:53.261Z,23.50
2018-06-28T20:28:27.126Z,23.40
2018-06-28T20:31:00.861Z,23.30
2018-06-28T20:33:34.857Z,23.30
2018-06-28T20:36:04.960Z,23.20
2018-06-28T20:38:33.533Z,23.20
2018-06-28T20:41:02.897Z,23.10
2018-06-28T20:43:32.897Z,23.00
2018-06-28T20:46:01.434Z,22.90
2018-06-28T20:48:29.908Z,22.90
2018-06-28T20:50:58.480Z,22.80
2018-06-28T20:53:27.092Z,22.70
2018-06-28T20:55:55.685Z,22.70
2018-06-28T20:58:24.233Z,22.60
2018-06-28T21:00:52.849Z,22.60
2018-06-28T21:03:21.433Z,22.60
2018-06-28T21:05:51.102Z,22.50
2018-06-28T21:08:19.947Z,22.40
2018-06-28T21:10:48.366Z,22.40
2018-06-28T21:13:16.825Z,22.40
2018-06-28T21:15:45.442Z,22.30
2018-06-28T21:18:14.041Z,22.30
2018-06-28T21:20:42.579Z,22.30
2018-06-28T21:23:11.119Z,22.20
2018-06-28T21:25:39.647Z,22.10
2018-06-28T21:28:08.092Z,22.10
2018-06-28T21:30:36.658Z,22.00
2018-06-28T21:33:05.249Z,22.00
2018-06-28T21:35:34.359Z,21.90
2018-06-28T21:38:04.112Z,21.90
2018-06-28T21:40:33.483Z,21.90
2018-06-28T21:43:03.064Z,21.80
2018-06-28T21:45:31.521Z,21.80
2018-06-28T21:48:00.021Z,21.80
2018-06-28T21:50:28.544Z,21.70
2018-06-28T21:52:57.058Z,21.70
2018-06-28T21:55:25.579Z,21.70
2018-06-28T21:57:53.994Z,21.60
2018-06-28T22:00:38.284Z,21.60
2018-06-28T22:03:07.813Z,21.60
2018-06-28T22:05:36.382Z,21.50
2018-06-28T22:08:05.667Z,21.50
2018-06-28T22:10:34.914Z,21.50
2018-06-28T22:13:04.984Z,21.40
2018-06-28T22:15:34.665Z,21.40
2018-06-28T22:18:04.363Z,21.40
2018-06-28T22:20:34.368Z,21.40
2018-06-28T22:23:04.318Z,21.40
2018-06-28T22:25:34.319Z,21.40
2018-06-28T22:28:04.289Z,21.40
2018-06-28T22:30:34.241Z,21.40
2018-06-28T22:33:04.128Z,21.40
2018-06-28T22:35:33.890Z,21.30
2018-06-28T22:38:02.857Z,21.40
2018-06-28T22:40:31.338Z,21.30
2018-06-28T22:42:59.848Z,21.30
2018-06-28T22:45:28.289Z,21.30
2018-06-28T22:47:56.830Z,21.30
2018-06-28T22:50:25.363Z,21.30
2018-06-28T22:52:53.869Z,21.20
2018-06-28T22:55:22.410Z,21.20
2018-06-28T22:57:50.833Z,21.20
2018-06-28T23:00:23.412Z,21.20
2018-06-28T23:02:51.844Z,21.10
2018-06-28T23:05:20.600Z,21.10
2018-06-28T23:07:49.032Z,21.10
2018-06-28T23:10:17.449Z,21.00
2018-06-28T23:12:46.066Z,21.00
2018-06-28T23:15:14.576Z,20.90
2018-06-28T23:17:43.097Z,21.00
2018-06-28T23:20:11.673Z,21.00
2018-06-28T23:22:43.933Z,20.90
2018-06-28T23:25:13.359Z,20.90
2018-06-28T23:27:42.680Z,20.80
2018-06-28T23:30:12.226Z,20.90
2018-06-28T23:32:41.117Z,20.80
2018-06-28T23:35:10.214Z,20.80
2018-06-28T23:37:38.742Z,20.70
2018-06-28T23:40:07.351Z,20.70
2018-06-28T23:42:36.461Z,20.60
2018-06-28T23:45:05.456Z,20.70
2018-06-28T23:47:33.915Z,20.60
2018-06-28T23:50:02.433Z,20.50
2018-06-28T23:52:30.850Z,20.50
2018-06-28T23:54:59.353Z,20.50
2018-06-28T23:57:27.829Z,20.40
2018-06-28T23:59:56.346Z,20.40
